sensor_id;sensor_type;location;lat;lon;timestamp;pressure;altitude;pressure_sealevel;temperature;humidity
62103;BME280;48077;48.104;11.702;2023-04-16T00:01:47;95235.47;;;3.22;100.00
62103;BME280;48077;48.104;11.702;2023-04-16T00:07:41;95274.53;;;3.40;100.00
62103;BME280;48077;48.104;11.702;2023-04-16T00:10:04;95271.47;;;3.37;100.00
62103;BME280;48077;48.104;11.702;2023-04-16T00:12:30;95271.88;;;3.34;100.00
62103;BME280;48077;48.104;11.702;2023-04-16T00:14:54;95268.00;;;3.30;100.00
62103;BME280;48077;48.104;11.702;2023-04-16T00:17:17;95277.38;;;3.39;100.00
62103;BME280;48077;48.104;11.702;2023-04-16T00:19:40;95281.22;;;3.36;100.00
62103;BME280;48077;48.104;11.702;2023-04-16T00:22:04;95265.13;;;3.31;100.00
62103;BME280;48077;48.104;11.702;2023-04-16T00:24:27;95272.88;;;3.33;100.00
62103;BME280;48077;48.104;11.702;2023-04-16T00:26:51;95277.31;;;3.32;100.00
62103;BME280;48077;48.104;11.702;2023-04-16T00:29:14;95274.25;;;3.29;100.00
62103;BME280;48077;48.104;11.702;2023-04-16T00:31:37;95265.94;;;3.25;100.00
62103;BME280;48077;48.104;11.702;2023-04-16T00:34:01;95271.84;;;3.27;100.00
62103;BME280;48077;48.104;11.702;2023-04-16T00:36:25;95271.00;;;3.27;100.00
62103;BME280;48077;48.104;11.702;2023-04-16T00:38:52;95249.22;;;3.11;100.00
62103;BME280;48077;48.104;11.702;2023-04-16T00:41:15;95258.59;;;3.20;100.00
62103;BME280;48077;48.104;11.702;2023-04-16T00:43:39;95278.31;;;3.31;100.00
62103;BME280;48077;48.104;11.702;2023-04-16T00:46:03;95276.53;;;3.32;100.00
62103;BME280;48077;48.104;11.702;2023-04-16T00:48:27;95276.69;;;3.30;100.00
62103;BME280;48077;48.104;11.702;2023-04-16T00:50:52;95268.19;;;3.28;100.00
62103;BME280;48077;48.104;11.702;2023-04-16T00:53:19;95271.44;;;3.30;100.00
62103;BME280;48077;48.104;11.702;2023-04-16T00:55:43;95268.97;;;3.29;100.00
62103;BME280;48077;48.104;11.702;2023-04-16T00:58:06;95270.41;;;3.31;100.00
62103;BME280;48077;48.104;11.702;2023-04-16T01:00:30;95274.28;;;3.35;100.00
62103;BME280;48077;48.104;11.702;2023-04-16T01:02:53;95248.25;;;3.19;100.00
62103;BME280;48077;48.104;11.702;2023-04-16T01:05:17;95271.25;;;3.32;100.00
62103;BME280;48077;48.104;11.702;2023-04-16T01:07:41;95270.41;;;3.31;100.00
62103;BME280;48077;48.104;11.702;2023-04-16T01:10:04;95268.97;;;3.29;100.00
62103;BME280;48077;48.104;11.702;2023-04-16T01:12:28;95263.84;;;3.20;100.00
62103;BME280;48077;48.104;11.702;2023-04-16T01:14:51;95265.94;;;3.25;100.00
62103;BME280;48077;48.104;11.702;2023-04-16T01:17:17;95250.63;;;3.14;100.00
62103;BME280;48077;48.104;11.702;2023-04-16T01:19:42;95270.78;;;3.21;100.00
62103;BME280;48077;48.104;11.702;2023-04-16T01:22:05;95258.53;;;3.14;100.00
62103;BME280;48077;48.104;11.702;2023-04-16T01:24:29;95266.50;;;3.20;100.00
62103;BME280;48077;48.104;11.702;2023-04-16T01:26:52;95264.88;;;3.19;100.00
62103;BME280;48077;48.104;11.702;2023-04-16T01:29:16;95265.63;;;3.13;100.00
62103;BME280;48077;48.104;11.702;2023-04-16T01:31:39;95288.03;;;3.24;100.00
62103;BME280;48077;48.104;11.702;2023-04-16T01:34:02;95264.41;;;3.09;100.00
62103;BME280;48077;48.104;11.702;2023-04-16T01:36:26;95255.88;;;3.07;100.00
62103;BME280;48077;48.104;11.702;2023-04-16T01:38:49;95288.03;;;3.24;100.00
62103;BME280;48077;48.104;11.702;2023-04-16T01:41:12;95278.06;;;3.19;100.00
62103;BME280;48077;48.104;11.702;2023-04-16T01:43:36;95290.47;;;3.26;100.00
62103;BME280;48077;48.104;11.702;2023-04-16T01:46:28;95295.13;;;3.23;100.00
62103;BME280;48077;48.104;11.702;2023-04-16T01:48:53;95267.03;;;3.09;100.00
62103;BME280;48077;48.104;11.702;2023-04-16T01:51:17;95295.94;;;3.24;100.00
62103;BME280;48077;48.104;11.702;2023-04-16T01:53:40;95300.00;;;3.27;100.00
62103;BME280;48077;48.104;11.702;2023-04-16T01:56:04;95299.19;;;3.26;100.00
62103;BME280;48077;48.104;11.702;2023-04-16T01:58:29;95285.56;;;3.22;100.00
62103;BME280;48077;48.104;11.702;2023-04-16T02:00:53;95281.13;;;3.23;100.00
62103;BME280;48077;48.104;11.702;2023-04-16T02:03:16;95294.53;;;3.28;100.00
62103;BME280;48077;48.104;11.702;2023-04-16T02:05:40;95269.72;;;3.16;100.00
62103;BME280;48077;48.104;11.702;2023-04-16T02:08:04;95282.31;;;3.20;100.00
62103;BME280;48077;48.104;11.702;2023-04-16T02:10:27;95298.78;;;3.29;100.00
62103;BME280;48077;48.104;11.702;2023-04-16T02:12:50;95286.19;;;3.24;100.00
62103;BME280;48077;48.104;11.702;2023-04-16T02:15:14;95284.75;;;3.22;100.00
62103;BME280;48077;48.104;11.702;2023-04-16T02:17:38;95282.13;;;3.22;100.00
62103;BME280;48077;48.104;11.702;2023-04-16T02:20:01;95295.94;;;3.24;100.00
62103;BME280;48077;48.104;11.702;2023-04-16T02:22:27;95294.53;;;3.28;100.00
62103;BME280;48077;48.104;11.702;2023-04-16T02:24:51;95296.38;;;3.28;100.00
62103;BME280;48077;48.104;11.702;2023-04-16T02:27:14;95280.25;;;3.16;100.00
62103;BME280;48077;48.104;11.702;2023-04-16T02:29:38;95274.53;;;3.12;100.00
62103;BME280;48077;48.104;11.702;2023-04-16T02:32:01;95284.31;;;3.18;100.00
62103;BME280;48077;48.104;11.702;2023-04-16T02:34:24;95270.28;;;3.11;100.00
62103;BME280;48077;48.104;11.702;2023-04-16T02:36:48;95277.78;;;3.14;100.00
62103;BME280;48077;48.104;11.702;2023-04-16T02:39:11;95280.88;;;3.18;100.00
62103;BME280;48077;48.104;11.702;2023-04-16T02:41:35;95291.69;;;3.23;100.00
62103;BME280;48077;48.104;11.702;2023-04-16T02:43:58;95282.53;;;3.19;100.00
62103;BME280;48077;48.104;11.702;2023-04-16T02:46:22;95300.63;;;3.29;100.00
62103;BME280;48077;48.104;11.702;2023-04-16T02:48:45;95301.41;;;3.29;100.00
62103;BME280;48077;48.104;11.702;2023-04-16T02:51:09;95298.78;;;3.29;100.00
62103;BME280;48077;48.104;11.702;2023-04-16T02:53:32;95279.44;;;3.15;100.00
62103;BME280;48077;48.104;11.702;2023-04-16T02:55:55;95294.50;;;3.21;100.00
62103;BME280;48077;48.104;11.702;2023-04-16T02:58:22;95302.44;;;3.28;100.00
62103;BME280;48077;48.104;11.702;2023-04-16T03:00:46;95309.31;;;3.29;100.00
62103;BME280;48077;48.104;11.702;2023-04-16T03:03:10;95303.22;;;3.22;100.00
62103;BME280;48077;48.104;11.702;2023-04-16T03:05:33;95286.72;;;3.13;100.00
62103;BME280;48077;48.104;11.702;2023-04-16T03:07:56;95296.31;;;3.21;100.00
62103;BME280;48077;48.104;11.702;2023-04-16T03:10:20;95300.75;;;3.20;100.00
62103;BME280;48077;48.104;11.702;2023-04-16T03:12:43;95303.38;;;3.20;100.00
62103;BME280;48077;48.104;11.702;2023-04-16T03:15:07;95303.22;;;3.22;100.00
62103;BME280;48077;48.104;11.702;2023-04-16T03:17:30;95310.75;;;3.25;100.00
62103;BME280;48077;48.104;11.702;2023-04-16T03:19:54;95302.34;;;3.15;100.00
62103;BME280;48077;48.104;11.702;2023-04-16T03:22:17;95309.28;;;3.22;100.00
62103;BME280;48077;48.104;11.702;2023-04-16T03:24:40;95294.81;;;3.12;100.00
62103;BME280;48077;48.104;11.702;2023-04-16T03:27:04;95319.88;;;3.29;100.00
62103;BME280;48077;48.104;11.702;2023-04-16T03:29:27;95294.63;;;3.13;100.00
62103;BME280;48077;48.104;11.702;2023-04-16T03:31:51;95328.41;;;3.31;100.00
62103;BME280;48077;48.104;11.702;2023-04-16T03:34:14;95317.81;;;3.24;100.00
62103;BME280;48077;48.104;11.702;2023-04-16T03:36:38;95316.38;;;3.22;100.00
62103;BME280;48077;48.104;11.702;2023-04-16T03:39:01;95318.03;;;3.23;100.00
62103;BME280;48077;48.104;11.702;2023-04-16T03:41:25;95316.03;;;3.25;100.00
62103;BME280;48077;48.104;11.702;2023-04-16T03:43:48;95300.53;;;3.15;100.00
62103;BME280;48077;48.104;11.702;2023-04-16T03:46:11;95318.41;;;3.20;100.00
62103;BME280;48077;48.104;11.702;2023-04-16T03:48:35;95302.97;;;3.17;100.00
62103;BME280;48077;48.104;11.702;2023-04-16T03:50:58;95315.75;;;3.20;100.00
62103;BME280;48077;48.104;11.702;2023-04-16T03:53:22;95343.41;;;3.31;100.00
62103;BME280;48077;48.104;11.702;2023-04-16T03:55:48;95306.38;;;3.11;100.00
62103;BME280;48077;48.104;11.702;2023-04-16T03:58:13;95313.69;;;3.15;100.00
62103;BME280;48077;48.104;11.702;2023-04-16T04:00:40;95334.47;;;3.25;100.00
62103;BME280;48077;48.104;11.702;2023-04-16T04:03:03;95314.06;;;3.12;100.00
62103;BME280;48077;48.104;11.702;2023-04-16T04:05:27;95350.34;;;3.32;100.00
62103;BME280;48077;48.104;11.702;2023-04-16T04:07:51;95331.22;;;3.23;100.00
62103;BME280;48077;48.104;11.702;2023-04-16T04:10:14;95350.50;;;3.30;100.00
62103;BME280;48077;48.104;11.702;2023-04-16T04:12:38;95340.72;;;3.24;100.00
62103;BME280;48077;48.104;11.702;2023-04-16T04:15:02;95337.88;;;3.19;100.00
62103;BME280;48077;48.104;11.702;2023-04-16T04:17:25;95273.91;;;2.82;100.00
62103;BME280;48077;48.104;11.702;2023-04-16T04:19:48;95293.06;;;2.97;100.00
62103;BME280;48077;48.104;11.702;2023-04-16T04:22:12;95321.97;;;3.12;100.00
62103;BME280;48077;48.104;11.702;2023-04-16T04:24:35;95285.13;;;2.91;100.00
62103;BME280;48077;48.104;11.702;2023-04-16T04:26:59;95294.09;;;2.96;100.00
62103;BME280;48077;48.104;11.702;2023-04-16T04:29:23;95352.34;;;3.30;100.00
62103;BME280;48077;48.104;11.702;2023-04-16T04:31:47;95272.84;;;2.76;100.00
62103;BME280;48077;48.104;11.702;2023-04-16T04:34:10;95337.41;;;3.15;100.00
62103;BME280;48077;48.104;11.702;2023-04-16T04:36:34;95351.84;;;3.19;100.00
62103;BME280;48077;48.104;11.702;2023-04-16T04:38:57;95366.09;;;3.25;100.00
62103;BME280;48077;48.104;11.702;2023-04-16T04:41:20;95307.00;;;2.91;100.00
62103;BME280;48077;48.104;11.702;2023-04-16T04:43:44;95295.97;;;2.81;100.00
62103;BME280;48077;48.104;11.702;2023-04-16T04:46:07;95366.91;;;3.26;100.00
62103;BME280;48077;48.104;11.702;2023-04-16T04:48:33;95326.22;;;3.07;100.00
62103;BME280;48077;48.104;11.702;2023-04-16T04:50:56;95346.94;;;3.16;100.00
62103;BME280;48077;48.104;11.702;2023-04-16T04:53:20;95368.97;;;3.30;100.00
62103;BME280;48077;48.104;11.702;2023-04-16T04:55:43;95361.19;;;3.22;100.00
62103;BME280;48077;48.104;11.702;2023-04-16T04:58:07;95372.81;;;3.28;100.00
62103;BME280;48077;48.104;11.702;2023-04-16T05:00:33;95376.69;;;3.32;100.00
62103;BME280;48077;48.104;11.702;2023-04-16T05:03:01;95365.72;;;3.28;100.00
62103;BME280;48077;48.104;11.702;2023-04-16T05:05:24;95372.84;;;3.34;100.00
62103;BME280;48077;48.104;11.702;2023-04-16T05:07:50;95384.03;;;3.36;100.00
62103;BME280;48077;48.104;11.702;2023-04-16T05:10:13;95360.56;;;3.20;100.00
62103;BME280;48077;48.104;11.702;2023-04-16T05:12:37;95360.22;;;3.23;100.00
62103;BME280;48077;48.104;11.702;2023-04-16T05:15:02;95354.31;;;3.21;100.00
62103;BME280;48077;48.104;11.702;2023-04-16T05:17:25;95371.16;;;3.27;100.00
62103;BME280;48077;48.104;11.702;2023-04-16T05:19:48;95372.81;;;3.28;100.00
62103;BME280;48077;48.104;11.702;2023-04-16T05:22:12;95322.88;;;2.98;100.00
62103;BME280;48077;48.104;11.702;2023-04-16T05:24:35;95391.38;;;3.41;100.00
62103;BME280;48077;48.104;11.702;2023-04-16T05:26:59;95394.19;;;3.39;100.00
62103;BME280;48077;48.104;11.702;2023-04-16T05:29:22;95388.50;;;3.36;100.00
62103;BME280;48077;48.104;11.702;2023-04-16T05:31:46;95376.66;;;3.25;100.00
62103;BME280;48077;48.104;11.702;2023-04-16T05:34:09;95384.97;;;3.29;100.00
62103;BME280;48077;48.104;11.702;2023-04-16T05:36:33;95356.06;;;3.14;100.00
62103;BME280;48077;48.104;11.702;2023-04-16T05:38:56;95399.09;;;3.42;100.00
62103;BME280;48077;48.104;11.702;2023-04-16T05:41:19;95416.16;;;3.47;100.00
62103;BME280;48077;48.104;11.702;2023-04-16T05:43:43;95386.47;;;3.38;100.00
62103;BME280;48077;48.104;11.702;2023-04-16T05:46:06;95399.31;;;3.48;100.00
62103;BME280;48077;48.104;11.702;2023-04-16T05:48:30;95412.19;;;3.57;100.00
62103;BME280;48077;48.104;11.702;2023-04-16T05:50:53;95408.75;;;3.57;100.00
62103;BME280;48077;48.104;11.702;2023-04-16T05:53:16;95399.94;;;3.50;100.00
62103;BME280;48077;48.104;11.702;2023-04-16T05:55:41;95414.25;;;3.62;100.00
62103;BME280;48077;48.104;11.702;2023-04-16T05:58:04;95372.47;;;3.37;100.00
62103;BME280;48077;48.104;11.702;2023-04-16T06:00:28;95405.09;;;3.58;100.00
62103;BME280;48077;48.104;11.702;2023-04-16T06:02:51;95379.56;;;3.37;100.00
62103;BME280;48077;48.104;11.702;2023-04-16T06:05:14;95362.88;;;3.30;100.00
62103;BME280;48077;48.104;11.702;2023-04-16T06:07:38;95396.13;;;3.52;100.00
62103;BME280;48077;48.104;11.702;2023-04-16T06:10:01;95424.28;;;3.73;100.00
62103;BME280;48077;48.104;11.702;2023-04-16T06:12:24;95407.72;;;3.58;100.00
62103;BME280;48077;48.104;11.702;2023-04-16T06:14:48;95435.88;;;3.79;100.00
62103;BME280;48077;48.104;11.702;2023-04-16T06:17:11;95434.09;;;3.79;100.00
62103;BME280;48077;48.104;11.702;2023-04-16T06:19:37;95426.53;;;3.76;100.00
62103;BME280;48077;48.104;11.702;2023-04-16T06:22:01;95425.53;;;3.77;100.00
62103;BME280;48077;48.104;11.702;2023-04-16T06:24:24;95437.75;;;3.85;100.00
62103;BME280;48077;48.104;11.702;2023-04-16T06:26:47;95414.38;;;3.75;100.00
62103;BME280;48077;48.104;11.702;2023-04-16T06:29:11;95429.91;;;3.92;100.00
62103;BME280;48077;48.104;11.702;2023-04-16T06:31:34;95430.91;;;3.91;100.00
62103;BME280;48077;48.104;11.702;2023-04-16T06:33:58;95437.66;;;4.00;100.00
62103;BME280;48077;48.104;11.702;2023-04-16T06:36:21;95424.44;;;4.00;100.00
62103;BME280;48077;48.104;11.702;2023-04-16T06:38:44;95408.00;;;3.98;100.00
62103;BME280;48077;48.104;11.702;2023-04-16T06:41:08;95430.06;;;4.18;100.00
62103;BME280;48077;48.104;11.702;2023-04-16T06:43:31;95408.31;;;4.16;100.00
62103;BME280;48077;48.104;11.702;2023-04-16T06:45:55;95364.31;;;3.89;100.00
62103;BME280;48077;48.104;11.702;2023-04-16T06:48:19;95428.75;;;4.36;100.00
62103;BME280;48077;48.104;11.702;2023-04-16T06:50:42;95445.69;;;4.48;100.00
62103;BME280;48077;48.104;11.702;2023-04-16T06:53:06;95417.56;;;4.34;100.00
62103;BME280;48077;48.104;11.702;2023-04-16T06:55:29;95423.47;;;4.36;100.00
62103;BME280;48077;48.104;11.702;2023-04-16T06:57:53;95388.81;;;4.11;100.00
62103;BME280;48077;48.104;11.702;2023-04-16T07:00:16;95413.06;;;4.28;100.00
62103;BME280;48077;48.104;11.702;2023-04-16T07:02:40;95374.31;;;4.00;100.00
62103;BME280;48077;48.104;11.702;2023-04-16T07:05:03;95456.88;;;4.57;100.00
62103;BME280;48077;48.104;11.702;2023-04-16T07:07:27;95440.97;;;4.43;100.00
62103;BME280;48077;48.104;11.702;2023-04-16T07:09:50;95403.47;;;4.20;100.00
62103;BME280;48077;48.104;11.702;2023-04-16T07:12:14;95438.53;;;4.42;100.00
62103;BME280;48077;48.104;11.702;2023-04-16T07:14:38;95383.94;;;4.14;100.00
62103;BME280;48077;48.104;11.702;2023-04-16T07:17:01;95419.19;;;4.35;100.00
62103;BME280;48077;48.104;11.702;2023-04-16T07:19:25;95406.56;;;4.30;100.00
62103;BME280;48077;48.104;11.702;2023-04-16T07:21:52;95436.72;;;4.49;100.00
62103;BME280;48077;48.104;11.702;2023-04-16T07:24:15;95387.44;;;4.21;100.00
62103;BME280;48077;48.104;11.702;2023-04-16T07:26:39;95397.06;;;4.36;100.00
62103;BME280;48077;48.104;11.702;2023-04-16T07:29:02;95404.59;;;4.45;100.00
62103;BME280;48077;48.104;11.702;2023-04-16T07:31:26;95417.88;;;4.52;100.00
62103;BME280;48077;48.104;11.702;2023-04-16T07:33:49;95464.31;;;4.81;100.00
62103;BME280;48077;48.104;11.702;2023-04-16T07:36:13;95441.69;;;4.72;100.00
62103;BME280;48077;48.104;11.702;2023-04-16T07:38:36;95420.34;;;4.67;100.00
62103;BME280;48077;48.104;11.702;2023-04-16T07:41:00;95429.53;;;4.78;100.00
62103;BME280;48077;48.104;11.702;2023-04-16T07:43:23;95389.81;;;4.51;100.00
62103;BME280;48077;48.104;11.702;2023-04-16T07:45:47;95470.47;;;5.02;100.00
62103;BME280;48077;48.104;11.702;2023-04-16T07:48:10;95410.97;;;4.58;100.00
62103;BME280;48077;48.104;11.702;2023-04-16T07:50:33;95479.84;;;5.04;100.00
62103;BME280;48077;48.104;11.702;2023-04-16T07:52:57;95428.91;;;4.69;100.00
62103;BME280;48077;48.104;11.702;2023-04-16T07:55:20;95471.25;;;4.96;100.00
62103;BME280;48077;48.104;11.702;2023-04-16T07:57:44;95459.03;;;4.81;100.00
62103;BME280;48077;48.104;11.702;2023-04-16T08:00:08;95466.56;;;4.84;100.00
62103;BME280;48077;48.104;11.702;2023-04-16T08:02:31;95463.47;;;4.81;100.00
62103;BME280;48077;48.104;11.702;2023-04-16T08:04:55;95464.94;;;4.83;100.00
62103;BME280;48077;48.104;11.702;2023-04-16T08:07:18;95475.53;;;4.90;100.00
62103;BME280;48077;48.104;11.702;2023-04-16T08:09:51;95442.72;;;4.71;100.00
62103;BME280;48077;48.104;11.702;2023-04-16T08:12:15;95429.91;;;4.68;100.00
62103;BME280;48077;48.104;11.702;2023-04-16T08:14:41;95463.94;;;4.91;100.00
62103;BME280;48077;48.104;11.702;2023-04-16T08:17:04;95459.66;;;4.90;100.00
62103;BME280;48077;48.104;11.702;2023-04-16T08:19:28;95412.03;;;4.70;100.00
62103;BME280;48077;48.104;11.702;2023-04-16T08:21:51;95438.34;;;4.92;100.00
62103;BME280;48077;48.104;11.702;2023-04-16T08:24:15;95435.28;;;4.95;100.00
62103;BME280;48077;48.104;11.702;2023-04-16T08:26:38;95487.28;;;5.36;100.00
62103;BME280;48077;48.104;11.702;2023-04-16T08:29:02;95477.06;;;5.33;100.00
62103;BME280;48077;48.104;11.702;2023-04-16T08:31:25;95470.97;;;5.32;100.00
62103;BME280;48077;48.104;11.702;2023-04-16T08:33:49;95500.75;;;5.61;100.00
62103;BME280;48077;48.104;11.702;2023-04-16T08:36:12;95500.53;;;5.62;100.00
62103;BME280;48077;48.104;11.702;2023-04-16T08:38:35;95493.63;;;5.68;100.00
62103;BME280;48077;48.104;11.702;2023-04-16T08:41:02;95492.19;;;5.65;100.00
62103;BME280;48077;48.104;11.702;2023-04-16T08:43:32;95511.97;;;5.90;100.00
62103;BME280;48077;48.104;11.702;2023-04-16T08:45:56;95506.28;;;5.86;100.00
62103;BME280;48077;48.104;11.702;2023-04-16T08:48:20;95517.72;;;6.06;100.00
62103;BME280;48077;48.104;11.702;2023-04-16T08:50:45;95513.63;;;6.04;100.00
62103;BME280;48077;48.104;11.702;2023-04-16T08:53:10;95509.53;;;6.08;100.00
62103;BME280;48077;48.104;11.702;2023-04-16T08:55:45;95516.47;;;6.16;100.00
62103;BME280;48077;48.104;11.702;2023-04-16T08:58:14;95523.44;;;6.17;100.00
62103;BME280;48077;48.104;11.702;2023-04-16T09:00:40;95513.84;;;6.16;100.00
62103;BME280;48077;48.104;11.702;2023-04-16T09:03:08;95521.78;;;6.22;100.00
62103;BME280;48077;48.104;11.702;2023-04-16T09:05:33;95523.00;;;6.20;100.00
62103;BME280;48077;48.104;11.702;2023-04-16T09:07:56;95514.06;;;6.21;100.00
62103;BME280;48077;48.104;11.702;2023-04-16T09:10:20;95525.84;;;6.38;100.00
62103;BME280;48077;48.104;11.702;2023-04-16T09:12:44;95516.47;;;6.36;100.00
62103;BME280;48077;48.104;11.702;2023-04-16T09:15:11;95523.19;;;6.38;100.00
62103;BME280;48077;48.104;11.702;2023-04-16T09:17:34;95527.63;;;6.58;100.00
62103;BME280;48077;48.104;11.702;2023-04-16T09:19:58;95531.28;;;6.70;100.00
62103;BME280;48077;48.104;11.702;2023-04-16T09:22:21;95526.59;;;6.72;100.00
62103;BME280;48077;48.104;11.702;2023-04-16T09:24:45;95534.13;;;6.82;100.00
62103;BME280;48077;48.104;11.702;2023-04-16T09:27:08;95534.28;;;6.94;99.78
62103;BME280;48077;48.104;11.702;2023-04-16T09:29:41;95528.97;;;7.00;98.34
62103;BME280;48077;48.104;11.702;2023-04-16T09:32:09;95533.81;;;7.10;97.60
62103;BME280;48077;48.104;11.702;2023-04-16T09:34:34;95530.38;;;7.09;95.08
62103;BME280;48077;48.104;11.702;2023-04-16T09:37:16;95504.69;;;7.03;95.27
62103;BME280;48077;48.104;11.702;2023-04-16T09:39:42;95496.69;;;7.17;93.82
62103;BME280;48077;48.104;11.702;2023-04-16T09:42:05;95504.97;;;7.34;93.83
62103;BME280;48077;48.104;11.702;2023-04-16T09:44:37;95506.94;;;7.45;93.40
62103;BME280;48077;48.104;11.702;2023-04-16T09:47:05;95485.47;;;7.15;91.49
62103;BME280;48077;48.104;11.702;2023-04-16T09:49:33;95467.78;;;6.95;93.99
62103;BME280;48077;48.104;11.702;2023-04-16T09:51:57;95535.13;;;7.46;94.41
62103;BME280;48077;48.104;11.702;2023-04-16T09:54:22;95467.34;;;7.05;94.38
62103;BME280;48077;48.104;11.702;2023-04-16T09:56:45;95532.09;;;7.36;91.61
62103;BME280;48077;48.104;11.702;2023-04-16T09:59:22;95505.84;;;7.21;92.18
62103;BME280;48077;48.104;11.702;2023-04-16T10:01:46;95482.25;;;6.99;92.31
62103;BME280;48077;48.104;11.702;2023-04-16T10:04:14;95530.06;;;7.31;92.28
62103;BME280;48077;48.104;11.702;2023-04-16T10:06:38;95548.59;;;7.44;92.32
62103;BME280;48077;48.104;11.702;2023-04-16T10:09:06;95531.88;;;7.44;92.50
62103;BME280;48077;48.104;11.702;2023-04-16T10:11:29;95549.94;;;7.60;91.91
62103;BME280;48077;48.104;11.702;2023-04-16T10:13:53;95544.41;;;7.62;92.10
62103;BME280;48077;48.104;11.702;2023-04-16T10:16:18;95550.88;;;7.73;91.81
62103;BME280;48077;48.104;11.702;2023-04-16T10:18:43;95550.88;;;7.73;91.63
62103;BME280;48077;48.104;11.702;2023-04-16T10:21:07;95482.16;;;7.26;90.29
62103;BME280;48077;48.104;11.702;2023-04-16T10:23:32;95550.16;;;7.59;90.24
62103;BME280;48077;48.104;11.702;2023-04-16T10:25:57;95535.72;;;7.41;90.61
62103;BME280;48077;48.104;11.702;2023-04-16T10:28:22;95508.66;;;7.26;90.45
62103;BME280;48077;48.104;11.702;2023-04-16T10:30:48;95531.47;;;7.40;89.58
62103;BME280;48077;48.104;11.702;2023-04-16T10:33:16;95480.41;;;7.06;88.98
62103;BME280;48077;48.104;11.702;2023-04-16T10:35:39;95546.34;;;7.41;90.96
62103;BME280;48077;48.104;11.702;2023-04-16T10:38:23;95490.78;;;7.08;91.34
62103;BME280;48077;48.104;11.702;2023-04-16T10:40:49;95506.94;;;7.06;91.65
62103;BME280;48077;48.104;11.702;2023-04-16T10:43:17;95551.72;;;7.28;92.52
62103;BME280;48077;48.104;11.702;2023-04-16T10:45:41;95534.03;;;7.15;92.85
62103;BME280;48077;48.104;11.702;2023-04-16T10:48:05;95552.31;;;7.30;93.77
62103;BME280;48077;48.104;11.702;2023-04-16T10:50:36;95535.41;;;7.24;93.36
62103;BME280;48077;48.104;11.702;2023-04-16T10:53:21;95557.00;;;7.35;93.98
62103;BME280;48077;48.104;11.702;2023-04-16T10:56:09;95557.59;;;7.37;94.58
62103;BME280;48077;48.104;11.702;2023-04-16T10:58:34;95542.53;;;7.30;94.76
62103;BME280;48077;48.104;11.702;2023-04-16T11:00:59;95554.53;;;7.40;93.82
62103;BME280;48077;48.104;11.702;2023-04-16T11:03:23;95549.66;;;7.37;92.12
62103;BME280;48077;48.104;11.702;2023-04-16T11:05:46;95540.28;;;7.34;90.96
62103;BME280;48077;48.104;11.702;2023-04-16T11:08:13;95562.22;;;7.55;91.53
62103;BME280;48077;48.104;11.702;2023-04-16T11:10:38;95550.19;;;7.52;92.09
62103;BME280;48077;48.104;11.702;2023-04-16T11:13:04;95542.69;;;7.42;90.20
62103;BME280;48077;48.104;11.702;2023-04-16T11:15:28;95551.16;;;7.58;90.89
62103;BME280;48077;48.104;11.702;2023-04-16T11:17:53;95555.03;;;7.62;91.33
62103;BME280;48077;48.104;11.702;2023-04-16T11:20:20;95562.59;;;7.65;91.63
62103;BME280;48077;48.104;11.702;2023-04-16T11:22:44;95557.94;;;7.54;92.09
62103;BME280;48077;48.104;11.702;2023-04-16T11:25:07;95554.88;;;7.57;92.84
62103;BME280;48077;48.104;11.702;2023-04-16T11:27:31;95564.19;;;7.66;91.87
62103;BME280;48077;48.104;11.702;2023-04-16T11:30:07;95556.88;;;7.61;91.61
62103;BME280;48077;48.104;11.702;2023-04-16T11:32:35;95563.78;;;7.69;91.17
62103;BME280;48077;48.104;11.702;2023-04-16T11:35:00;95567.00;;;7.78;90.05
62103;BME280;48077;48.104;11.702;2023-04-16T11:37:36;95561.41;;;7.93;87.38
62103;BME280;48077;48.104;11.702;2023-04-16T11:40:03;95550.47;;;7.76;87.20
62103;BME280;48077;48.104;11.702;2023-04-16T11:42:30;95554.13;;;7.75;87.85
62103;BME280;48077;48.104;11.702;2023-04-16T11:44:55;95570.66;;;7.83;88.23
62103;BME280;48077;48.104;11.702;2023-04-16T11:47:18;95566.81;;;7.79;88.82
62103;BME280;48077;48.104;11.702;2023-04-16T11:49:42;95566.44;;;7.69;89.53
62103;BME280;48077;48.104;11.702;2023-04-16T11:52:05;95569.34;;;7.61;89.55
62103;BME280;48077;48.104;11.702;2023-04-16T11:54:29;95560.81;;;7.45;90.29
62103;BME280;48077;48.104;11.702;2023-04-16T11:56:56;95564.31;;;7.39;90.72
62103;BME280;48077;48.104;11.702;2023-04-16T11:59:23;95574.53;;;7.42;91.09
62103;BME280;48077;48.104;11.702;2023-04-16T12:01:48;95571.50;;;7.32;92.09
62103;BME280;48077;48.104;11.702;2023-04-16T12:04:18;95580.06;;;7.34;92.51
62103;BME280;48077;48.104;11.702;2023-04-16T12:07:04;95576.81;;;7.32;91.93
62103;BME280;48077;48.104;11.702;2023-04-16T12:09:28;95578.25;;;7.28;91.82
62103;BME280;48077;48.104;11.702;2023-04-16T12:11:52;95579.47;;;7.32;92.93
62103;BME280;48077;48.104;11.702;2023-04-16T12:14:15;95562.13;;;7.29;93.33
62103;BME280;48077;48.104;11.702;2023-04-16T12:16:39;95575.13;;;7.44;92.65
62103;BME280;48077;48.104;11.702;2023-04-16T12:19:03;95572.19;;;7.59;91.32
62103;BME280;48077;48.104;11.702;2023-04-16T12:24:07;95575.97;;;7.83;88.39
62103;BME280;48077;48.104;11.702;2023-04-16T12:26:43;95561.50;;;7.79;88.39
62103;BME280;48077;48.104;11.702;2023-04-16T12:29:21;95574.69;;;7.93;88.44
62103;BME280;48077;48.104;11.702;2023-04-16T12:31:45;95581.00;;;7.91;88.05
62103;BME280;48077;48.104;11.702;2023-04-16T12:34:12;95582.09;;;7.84;89.20
62103;BME280;48077;48.104;11.702;2023-04-16T12:36:37;95574.56;;;7.74;89.23
62103;BME280;48077;48.104;11.702;2023-04-16T12:39:00;95580.47;;;7.76;89.47
62103;BME280;48077;48.104;11.702;2023-04-16T12:41:25;95574.19;;;7.70;90.95
62103;BME280;48077;48.104;11.702;2023-04-16T12:43:48;95567.28;;;7.63;90.56
62103;BME280;48077;48.104;11.702;2023-04-16T12:46:12;95561.41;;;7.54;91.79